sensor_id;sensor_type;location;lat;lon;timestamp;pressure;altitude;pressure_sealevel;temperature;humidity
4133;BME280;2080;51.038;7.008;2023-04-25T00:00:28;76063.97;;;-142.53;98.97
4133;BME280;2080;51.038;7.008;2023-04-25T00:02:53;76044.56;;;-142.53;99.67
4133;BME280;2080;51.038;7.008;2023-04-25T00:05:22;76067.84;;;-142.53;98.80
4133;BME280;2080;51.038;7.008;2023-04-25T00:07:50;76056.19;;;-142.53;98.21
4133;BME280;2080;51.038;7.008;2023-04-25T00:10:20;76087.28;;;-142.53;98.08
4133;BME280;2080;51.038;7.008;2023-04-25T00:12:46;76079.50;;;-142.53;98.12
4133;BME280;2080;51.038;7.008;2023-04-25T00:15:13;76079.50;;;-142.53;97.66
4133;BME280;2080;51.038;7.008;2023-04-25T00:17:41;76098.94;;;-142.53;100.00
4133;BME280;2080;51.038;7.008;2023-04-25T00:20:07;76095.03;;;-142.53;98.49
4133;BME280;2080;51.038;7.008;2023-04-25T00:22:36;76083.41;;;-142.53;98.24
4133;BME280;2080;51.038;7.008;2023-04-25T00:25:07;76093.09;;;-142.53;97.53
4133;BME280;2080;51.038;7.008;2023-04-25T00:27:33;76108.63;;;-142.53;97.95
4133;BME280;2080;51.038;7.008;2023-04-25T00:30:01;76106.69;;;-142.53;97.85
4133;BME280;2080;51.038;7.008;2023-04-25T00:32:26;76114.47;;;-142.53;97.80
4133;BME280;2080;51.038;7.008;2023-04-25T00:34:51;76116.41;;;-142.53;99.38
4133;BME280;2080;51.038;7.008;2023-04-25T00:37:17;76126.13;;;-142.53;99.46
4133;BME280;2080;51.038;7.008;2023-04-25T00:39:45;76106.69;;;-142.53;100.00
4133;BME280;2080;51.038;7.008;2023-04-25T00:42:11;76112.53;;;-142.53;98.03
4133;BME280;2080;51.038;7.008;2023-04-25T00:44:39;76120.28;;;-142.53;98.87
4133;BME280;2080;51.038;7.008;2023-04-25T00:47:07;76114.47;;;-142.53;99.03
4133;BME280;2080;51.038;7.008;2023-04-25T00:49:37;76095.03;;;-142.53;100.00
4133;BME280;2080;51.038;7.008;2023-04-25T00:52:07;76083.41;;;-142.53;100.00
4133;BME280;2080;51.038;7.008;2023-04-25T00:54:35;76069.78;;;-142.53;100.00
4133;BME280;2080;51.038;7.008;2023-04-25T00:57:05;76040.66;;;-142.53;100.00
4133;BME280;2080;51.038;7.008;2023-04-25T00:59:31;76040.66;;;-142.53;100.00
4133;BME280;2080;51.038;7.008;2023-04-25T01:01:56;76015.41;;;-142.53;100.00
4133;BME280;2080;51.038;7.008;2023-04-25T01:04:22;75978.50;;;-142.53;100.00
4133;BME280;2080;51.038;7.008;2023-04-25T01:06:50;75988.22;;;-142.53;100.00
4133;BME280;2080;51.038;7.008;2023-04-25T01:09:16;75966.88;;;-142.53;100.00
4133;BME280;2080;51.038;7.008;2023-04-25T01:11:41;75978.50;;;-142.53;100.00
4133;BME280;2080;51.038;7.008;2023-04-25T01:14:09;75972.69;;;-142.53;99.66
4133;BME280;2080;51.038;7.008;2023-04-25T01:16:34;75964.91;;;-142.53;98.98
4133;BME280;2080;51.038;7.008;2023-04-25T01:19:01;75961.03;;;-142.53;99.23
4133;BME280;2080;51.038;7.008;2023-04-25T01:21:26;75966.88;;;-142.53;96.95
4133;BME280;2080;51.038;7.008;2023-04-25T01:23:58;75949.38;;;-142.53;97.59
4133;BME280;2080;51.038;7.008;2023-04-25T01:26:24;75959.09;;;-142.53;97.56
4133;BME280;2080;51.038;7.008;2023-04-25T01:28:50;75961.03;;;-142.53;97.78
4133;BME280;2080;51.038;7.008;2023-04-25T01:31:16;75955.22;;;-142.53;96.68
4133;BME280;2080;51.038;7.008;2023-04-25T01:33:41;75931.91;;;-142.53;97.39
4133;BME280;2080;51.038;7.008;2023-04-25T01:36:07;75902.78;;;-142.53;96.16
4133;BME280;2080;51.038;7.008;2023-04-25T01:38:33;75910.53;;;-142.53;95.95
4133;BME280;2080;51.038;7.008;2023-04-25T01:41:01;75947.44;;;-142.53;91.61
4133;BME280;2080;51.038;7.008;2023-04-25T01:43:29;75947.44;;;-142.53;93.45
4133;BME280;2080;51.038;7.008;2023-04-25T01:45:57;75966.88;;;-142.53;93.79
4133;BME280;2080;51.038;7.008;2023-04-25T01:48:22;75978.50;;;-142.53;91.23
4133;BME280;2080;51.038;7.008;2023-04-25T01:50:47;75986.28;;;-142.53;91.12
4133;BME280;2080;51.038;7.008;2023-04-25T01:53:15;75982.41;;;-142.53;90.80
4133;BME280;2080;51.038;7.008;2023-04-25T01:55:41;76009.59;;;-142.53;90.85
4133;BME280;2080;51.038;7.008;2023-04-25T01:58:08;76005.72;;;-142.53;90.06
4133;BME280;2080;51.038;7.008;2023-04-25T02:00:39;75974.63;;;-142.53;87.82
4133;BME280;2080;51.038;7.008;2023-04-25T02:03:06;76011.53;;;-142.53;88.28
4133;BME280;2080;51.038;7.008;2023-04-25T02:05:38;76001.81;;;-142.53;89.02
4133;BME280;2080;51.038;7.008;2023-04-25T02:08:07;76013.47;;;-142.53;87.98
4133;BME280;2080;51.038;7.008;2023-04-25T02:10:34;75997.94;;;-142.53;87.33
4133;BME280;2080;51.038;7.008;2023-04-25T02:12:59;75986.28;;;-142.53;86.18
4133;BME280;2080;51.038;7.008;2023-04-25T02:15:25;75990.16;;;-142.53;85.90
4133;BME280;2080;51.038;7.008;2023-04-25T02:17:50;75976.56;;;-142.53;85.72
4133;BME280;2080;51.038;7.008;2023-04-25T02:20:18;75982.41;;;-142.53;86.45
4133;BME280;2080;51.038;7.008;2023-04-25T02:22:47;75984.34;;;-142.53;86.04
4133;BME280;2080;51.038;7.008;2023-04-25T02:25:15;75999.88;;;-142.53;86.20
4133;BME280;2080;51.038;7.008;2023-04-25T02:27:41;76013.47;;;-142.53;86.75
4133;BME280;2080;51.038;7.008;2023-04-25T02:30:07;76013.47;;;-142.53;85.75
4133;BME280;2080;51.038;7.008;2023-04-25T02:32:33;75978.50;;;-142.53;85.02
4133;BME280;2080;51.038;7.008;2023-04-25T02:35:00;75961.03;;;-142.53;84.79
4133;BME280;2080;51.038;7.008;2023-04-25T02:37:29;75959.09;;;-142.53;84.60
4133;BME280;2080;51.038;7.008;2023-04-25T02:39:54;76007.66;;;-142.53;85.75
4133;BME280;2080;51.038;7.008;2023-04-25T02:42:24;76009.59;;;-142.53;86.25
4133;BME280;2080;51.038;7.008;2023-04-25T02:44:52;75974.63;;;-142.53;85.47
4133;BME280;2080;51.038;7.008;2023-04-25T02:47:20;76013.47;;;-142.53;86.30
4133;BME280;2080;51.038;7.008;2023-04-25T02:49:45;76005.72;;;-142.53;86.03
4133;BME280;2080;51.038;7.008;2023-04-25T02:52:13;76009.59;;;-142.53;86.72
4133;BME280;2080;51.038;7.008;2023-04-25T02:54:40;75978.50;;;-142.53;85.93
4133;BME280;2080;51.038;7.008;2023-04-25T02:57:06;75951.31;;;-142.53;85.10
4133;BME280;2080;51.038;7.008;2023-04-25T02:59:31;75990.16;;;-142.53;86.24
4133;BME280;2080;51.038;7.008;2023-04-25T03:01:58;75986.28;;;-142.53;86.30
4133;BME280;2080;51.038;7.008;2023-04-25T03:04:27;75984.34;;;-142.53;86.30
4133;BME280;2080;51.038;7.008;2023-04-25T03:06:52;75962.97;;;-142.53;85.46
4133;BME280;2080;51.038;7.008;2023-04-25T03:09:18;75974.63;;;-142.53;85.98
4133;BME280;2080;51.038;7.008;2023-04-25T03:11:45;75957.16;;;-142.53;85.19
4133;BME280;2080;51.038;7.008;2023-04-25T03:14:10;75962.97;;;-142.53;84.99
4133;BME280;2080;51.038;7.008;2023-04-25T03:16:38;75966.88;;;-142.53;85.13
4133;BME280;2080;51.038;7.008;2023-04-25T03:19:03;75959.09;;;-142.53;85.28
4133;BME280;2080;51.038;7.008;2023-04-25T03:21:33;75978.50;;;-142.53;85.42
4133;BME280;2080;51.038;7.008;2023-04-25T03:24:00;75955.22;;;-142.53;84.00
4133;BME280;2080;51.038;7.008;2023-04-25T03:26:27;75929.97;;;-142.53;83.11
4133;BME280;2080;51.038;7.008;2023-04-25T03:28:57;75947.44;;;-142.53;83.79
4133;BME280;2080;51.038;7.008;2023-04-25T03:31:23;75943.56;;;-142.53;83.29
4133;BME280;2080;51.038;7.008;2023-04-25T03:33:48;75959.09;;;-142.53;84.03
4133;BME280;2080;51.038;7.008;2023-04-25T03:36:16;75957.16;;;-142.53;83.99
4133;BME280;2080;51.038;7.008;2023-04-25T03:38:43;75939.69;;;-142.53;85.26
4133;BME280;2080;51.038;7.008;2023-04-25T03:41:11;75931.91;;;-142.53;84.11
4133;BME280;2080;51.038;7.008;2023-04-25T03:43:36;75928.03;;;-142.53;83.69
4133;BME280;2080;51.038;7.008;2023-04-25T03:46:01;75951.31;;;-142.53;84.07
4133;BME280;2080;51.038;7.008;2023-04-25T03:48:27;75931.91;;;-142.53;83.14
4133;BME280;2080;51.038;7.008;2023-04-25T03:50:53;75945.50;;;-142.53;84.10
4133;BME280;2080;51.038;7.008;2023-04-25T03:53:21;75937.72;;;-142.53;84.21
4133;BME280;2080;51.038;7.008;2023-04-25T03:55:46;75939.69;;;-142.53;84.36
4133;BME280;2080;51.038;7.008;2023-04-25T03:58:12;75949.38;;;-142.53;85.01
4133;BME280;2080;51.038;7.008;2023-04-25T04:00:39;75966.88;;;-142.53;85.45
4133;BME280;2080;51.038;7.008;2023-04-25T04:03:05;75935.78;;;-142.53;85.50
4133;BME280;2080;51.038;7.008;2023-04-25T04:05:30;75951.31;;;-142.53;84.86
4133;BME280;2080;51.038;7.008;2023-04-25T04:07:56;75939.69;;;-142.53;84.84
4133;BME280;2080;51.038;7.008;2023-04-25T04:10:21;75951.31;;;-142.53;85.08
4133;BME280;2080;51.038;7.008;2023-04-25T04:12:49;75951.31;;;-142.53;85.65
4133;BME280;2080;51.038;7.008;2023-04-25T04:15:16;75959.09;;;-142.53;85.66
4133;BME280;2080;51.038;7.008;2023-04-25T04:17:42;75955.22;;;-142.53;85.61
4133;BME280;2080;51.038;7.008;2023-04-25T04:20:10;75974.63;;;-142.53;85.93
4133;BME280;2080;51.038;7.008;2023-04-25T04:22:36;75959.09;;;-142.53;86.02
4133;BME280;2080;51.038;7.008;2023-04-25T04:25:07;75966.88;;;-142.53;86.49
4133;BME280;2080;51.038;7.008;2023-04-25T04:27:32;75935.78;;;-142.53;85.46
4133;BME280;2080;51.038;7.008;2023-04-25T04:29:57;75908.59;;;-142.53;84.46
4133;BME280;2080;51.038;7.008;2023-04-25T04:32:23;75914.44;;;-142.53;84.92
4133;BME280;2080;51.038;7.008;2023-04-25T04:34:49;75955.22;;;-142.53;86.12
4133;BME280;2080;51.038;7.008;2023-04-25T04:37:16;75924.13;;;-142.53;85.05
4133;BME280;2080;51.038;7.008;2023-04-25T04:39:42;75912.50;;;-142.53;85.25
4133;BME280;2080;51.038;7.008;2023-04-25T04:42:07;75893.06;;;-142.53;85.91
4133;BME280;2080;51.038;7.008;2023-04-25T04:44:33;75957.16;;;-142.53;86.23
4133;BME280;2080;51.038;7.008;2023-04-25T04:46:59;75966.88;;;-142.53;86.36
4133;BME280;2080;51.038;7.008;2023-04-25T04:49:29;75908.59;;;-142.53;84.46
4133;BME280;2080;51.038;7.008;2023-04-25T04:51:57;75904.72;;;-142.53;85.25
4133;BME280;2080;51.038;7.008;2023-04-25T04:54:22;75943.56;;;-142.53;85.55
4133;BME280;2080;51.038;7.008;2023-04-25T04:56:48;75943.56;;;-142.53;86.15
4133;BME280;2080;51.038;7.008;2023-04-25T04:59:13;75929.97;;;-142.53;85.96
4133;BME280;2080;51.038;7.008;2023-04-25T05:01:40;75966.88;;;-142.53;86.05
4133;BME280;2080;51.038;7.008;2023-04-25T05:04:08;75920.25;;;-142.53;84.84
4133;BME280;2080;51.038;7.008;2023-04-25T05:06:34;75928.03;;;-142.53;85.32
4133;BME280;2080;51.038;7.008;2023-04-25T05:08:59;75984.34;;;-142.53;85.83
4133;BME280;2080;51.038;7.008;2023-04-25T05:11:25;75943.56;;;-142.53;85.09
4133;BME280;2080;51.038;7.008;2023-04-25T05:13:56;75924.13;;;-142.53;84.06
4133;BME280;2080;51.038;7.008;2023-04-25T05:16:21;75922.19;;;-142.53;83.70
4133;BME280;2080;51.038;7.008;2023-04-25T05:18:49;75955.22;;;-142.53;84.62
4133;BME280;2080;51.038;7.008;2023-04-25T05:21:17;75943.56;;;-142.53;84.35
4133;BME280;2080;51.038;7.008;2023-04-25T05:23:42;75935.78;;;-142.53;84.11
4133;BME280;2080;51.038;7.008;2023-04-25T05:26:07;75937.72;;;-142.53;84.08
4133;BME280;2080;51.038;7.008;2023-04-25T05:28:41;75959.09;;;-142.53;84.74
4133;BME280;2080;51.038;7.008;2023-04-25T05:31:07;75976.56;;;-142.53;84.98
4133;BME280;2080;51.038;7.008;2023-04-25T05:33:35;75947.44;;;-142.53;84.43
4133;BME280;2080;51.038;7.008;2023-04-25T05:36:02;75978.50;;;-142.53;84.57
4133;BME280;2080;51.038;7.008;2023-04-25T05:38:30;75955.22;;;-142.53;83.56
4133;BME280;2080;51.038;7.008;2023-04-25T05:40:58;75951.31;;;-142.53;83.72
4133;BME280;2080;51.038;7.008;2023-04-25T05:43:23;75924.13;;;-142.53;82.53
4133;BME280;2080;51.038;7.008;2023-04-25T05:45:48;75924.13;;;-142.53;83.26
4133;BME280;2080;51.038;7.008;2023-04-25T05:48:14;75885.28;;;-142.53;81.97
4133;BME280;2080;51.038;7.008;2023-04-25T05:50:39;75869.75;;;-142.53;80.92
4133;BME280;2080;51.038;7.008;2023-04-25T05:53:04;75900.84;;;-142.53;81.00
4133;BME280;2080;51.038;7.008;2023-04-25T05:55:31;75889.19;;;-142.53;80.66
4133;BME280;2080;51.038;7.008;2023-04-25T05:57:56;75854.22;;;-142.53;79.51
4133;BME280;2080;51.038;7.008;2023-04-25T06:00:24;75865.88;;;-142.53;78.51
4133;BME280;2080;51.038;7.008;2023-04-25T06:02:49;75912.50;;;-142.53;79.37
4133;BME280;2080;51.038;7.008;2023-04-25T06:05:15;75879.47;;;-142.53;77.95
4133;BME280;2080;51.038;7.008;2023-04-25T06:07:40;75885.28;;;-142.53;78.68
4133;BME280;2080;51.038;7.008;2023-04-25T06:10:06;75902.78;;;-142.53;78.95
4133;BME280;2080;51.038;7.008;2023-04-25T06:12:32;75885.28;;;-142.53;78.68
4133;BME280;2080;51.038;7.008;2023-04-25T06:15:01;75832.88;;;-142.53;78.97
4133;BME280;2080;51.038;7.008;2023-04-25T06:17:26;75805.69;;;-142.53;75.51
4133;BME280;2080;51.038;7.008;2023-04-25T06:19:52;75825.09;;;-142.53;72.65
4133;BME280;2080;51.038;7.008;2023-04-25T06:22:18;75854.22;;;-142.53;70.34
4133;BME280;2080;51.038;7.008;2023-04-25T06:24:46;75799.84;;;-142.53;71.64
4133;BME280;2080;51.038;7.008;2023-04-25T06:27:13;75772.66;;;-142.53;70.25
4133;BME280;2080;51.038;7.008;2023-04-25T06:29:39;75757.13;;;-142.53;67.07
4133;BME280;2080;51.038;7.008;2023-04-25T06:32:04;75745.47;;;-142.53;67.10
4133;BME280;2080;51.038;7.008;2023-04-25T06:34:30;75772.66;;;-142.53;65.17
4133;BME280;2080;51.038;7.008;2023-04-25T06:36:55;75751.31;;;-142.53;65.49
4133;BME280;2080;51.038;7.008;2023-04-25T06:39:23;75761.00;;;-142.53;64.78
4133;BME280;2080;51.038;7.008;2023-04-25T06:41:51;75675.56;;;-142.53;64.77
4133;BME280;2080;51.038;7.008;2023-04-25T06:44:16;75679.44;;;-142.53;63.15
4133;BME280;2080;51.038;7.008;2023-04-25T06:46:44;75648.38;;;-142.53;62.74
4133;BME280;2080;51.038;7.008;2023-04-25T06:49:09;75594.00;;;-142.53;61.60
4133;BME280;2080;51.038;7.008;2023-04-25T06:51:34;75592.06;;;-142.53;58.48
4133;BME280;2080;51.038;7.008;2023-04-25T06:54:00;75702.75;;;-142.53;59.30
4133;BME280;2080;51.038;7.008;2023-04-25T06:56:25;75741.59;;;-142.53;58.77
4133;BME280;2080;51.038;7.008;2023-04-25T06:58:53;75728.00;;;-142.53;58.77
4133;BME280;2080;51.038;7.008;2023-04-25T07:01:18;75733.81;;;-142.53;59.72
4133;BME280;2080;51.038;7.008;2023-04-25T07:03:44;75687.22;;;-142.53;60.90
4133;BME280;2080;51.038;7.008;2023-04-25T07:06:09;75679.44;;;-142.53;59.91
4133;BME280;2080;51.038;7.008;2023-04-25T07:08:36;75671.69;;;-142.53;59.50
4133;BME280;2080;51.038;7.008;2023-04-25T07:11:04;75663.91;;;-142.53;58.68
4133;BME280;2080;51.038;7.008;2023-04-25T07:13:30;75722.16;;;-142.53;58.49
4133;BME280;2080;51.038;7.008;2023-04-25T07:15:55;75702.75;;;-142.53;58.71
4133;BME280;2080;51.038;7.008;2023-04-25T07:18:21;75691.09;;;-142.53;58.94
4133;BME280;2080;51.038;7.008;2023-04-25T07:20:49;75710.53;;;-142.53;58.73
4133;BME280;2080;51.038;7.008;2023-04-25T07:23:18;75702.75;;;-142.53;58.68
4133;BME280;2080;51.038;7.008;2023-04-25T07:25:43;75741.59;;;-142.53;58.95
4133;BME280;2080;51.038;7.008;2023-04-25T07:28:10;75718.28;;;-142.53;59.56
4133;BME280;2080;51.038;7.008;2023-04-25T07:30:36;75780.44;;;-142.53;58.71
4133;BME280;2080;51.038;7.008;2023-04-25T07:33:01;75819.28;;;-142.53;60.03
4133;BME280;2080;51.038;7.008;2023-04-25T07:35:27;75832.88;;;-142.53;62.56
4133;BME280;2080;51.038;7.008;2023-04-25T07:37:52;75799.84;;;-142.53;62.76
4133;BME280;2080;51.038;7.008;2023-04-25T07:40:18;75720.22;;;-142.53;60.12
4133;BME280;2080;51.038;7.008;2023-04-25T07:42:43;75714.41;;;-142.53;57.23
4133;BME280;2080;51.038;7.008;2023-04-25T07:45:09;75706.63;;;-142.53;53.17
4133;BME280;2080;51.038;7.008;2023-04-25T07:47:36;75706.63;;;-142.53;52.04
4133;BME280;2080;51.038;7.008;2023-04-25T07:50:03;75712.47;;;-142.53;50.80
4133;BME280;2080;51.038;7.008;2023-04-25T07:52:29;75691.09;;;-142.53;48.49
4133;BME280;2080;51.038;7.008;2023-04-25T07:54:54;75599.81;;;-142.53;48.77
4133;BME280;2080;51.038;7.008;2023-04-25T07:57:20;75578.47;;;-142.53;50.20
4133;BME280;2080;51.038;7.008;2023-04-25T07:59:47;75640.59;;;-142.53;46.64
4133;BME280;2080;51.038;7.008;2023-04-25T08:02:15;75613.41;;;-142.53;45.64
4133;BME280;2080;51.038;7.008;2023-04-25T08:04:40;75648.38;;;-142.53;45.62
4133;BME280;2080;51.038;7.008;2023-04-25T08:07:08;75605.66;;;-142.53;45.43
4133;BME280;2080;51.038;7.008;2023-04-25T08:09:34;75578.47;;;-142.53;45.85
4133;BME280;2080;51.038;7.008;2023-04-25T08:12:03;75590.13;;;-142.53;47.87
4133;BME280;2080;51.038;7.008;2023-04-25T08:14:33;75634.78;;;-142.53;47.98
4133;BME280;2080;51.038;7.008;2023-04-25T08:17:02;75644.50;;;-142.53;48.37
4133;BME280;2080;51.038;7.008;2023-04-25T08:19:30;75710.53;;;-142.53;48.39
4133;BME280;2080;51.038;7.008;2023-04-25T08:21:56;75729.94;;;-142.53;49.49
4133;BME280;2080;51.038;7.008;2023-04-25T08:24:22;75797.91;;;-142.53;49.11
4133;BME280;2080;51.038;7.008;2023-04-25T08:26:53;75772.66;;;-142.53;49.59
4133;BME280;2080;51.038;7.008;2023-04-25T08:29:19;75749.34;;;-142.53;48.24
4133;BME280;2080;51.038;7.008;2023-04-25T08:31:44;75838.69;;;-142.53;50.00
4133;BME280;2080;51.038;7.008;2023-04-25T08:34:09;75827.03;;;-142.53;49.50
4133;BME280;2080;51.038;7.008;2023-04-25T08:36:36;75842.56;;;-142.53;50.33
4133;BME280;2080;51.038;7.008;2023-04-25T08:39:01;75823.16;;;-142.53;48.85
4133;BME280;2080;51.038;7.008;2023-04-25T08:41:27;75834.81;;;-142.53;48.96
4133;BME280;2080;51.038;7.008;2023-04-25T08:43:53;75807.63;;;-142.53;49.57
4133;BME280;2080;51.038;7.008;2023-04-25T08:46:25;75850.34;;;-142.53;49.72
4133;BME280;2080;51.038;7.008;2023-04-25T08:48:53;75840.63;;;-142.53;49.60
4133;BME280;2080;51.038;7.008;2023-04-25T08:51:22;75871.69;;;-142.53;49.92
4133;BME280;2080;51.038;7.008;2023-04-25T08:53:54;75830.91;;;-142.53;50.97
4133;BME280;2080;51.038;7.008;2023-04-25T08:56:21;75797.91;;;-142.53;49.74
4133;BME280;2080;51.038;7.008;2023-04-25T08:58:49;75770.72;;;-142.53;50.61
4133;BME280;2080;51.038;7.008;2023-04-25T09:01:17;75733.81;;;-142.53;49.02
4133;BME280;2080;51.038;7.008;2023-04-25T09:03:44;75718.28;;;-142.53;48.40
4133;BME280;2080;51.038;7.008;2023-04-25T09:06:10;75681.38;;;-142.53;48.33
4133;BME280;2080;51.038;7.008;2023-04-25T09:08:39;75675.56;;;-142.53;48.16
4133;BME280;2080;51.038;7.008;2023-04-25T09:11:06;75652.25;;;-142.53;47.54
4133;BME280;2080;51.038;7.008;2023-04-25T09:13:34;75609.53;;;-142.53;46.21
4133;BME280;2080;51.038;7.008;2023-04-25T09:16:00;75605.66;;;-142.53;45.09
4133;BME280;2080;51.038;7.008;2023-04-25T09:18:27;75607.59;;;-142.53;43.98
4133;BME280;2080;51.038;7.008;2023-04-25T09:20:54;75648.38;;;-142.53;43.46
4133;BME280;2080;51.038;7.008;2023-04-25T09:23:22;75652.25;;;-142.53;44.60
4133;BME280;2080;51.038;7.008;2023-04-25T09:25:49;75660.03;;;-142.53;43.32
4133;BME280;2080;51.038;7.008;2023-04-25T09:28:25;75728.00;;;-142.53;44.66
4133;BME280;2080;51.038;7.008;2023-04-25T09:30:57;75784.31;;;-142.53;44.50
4133;BME280;2080;51.038;7.008;2023-04-25T09:33:29;75706.63;;;-142.53;44.11
4133;BME280;2080;51.038;7.008;2023-04-25T09:36:03;75762.94;;;-142.53;44.49
4133;BME280;2080;51.038;7.008;2023-04-25T09:38:31;75743.53;;;-142.53;46.03
4133;BME280;2080;51.038;7.008;2023-04-25T09:40:57;75718.28;;;-142.53;42.33
4133;BME280;2080;51.038;7.008;2023-04-25T09:43:25;75630.91;;;-142.53;41.67
4133;BME280;2080;51.038;7.008;2023-04-25T09:45:54;75592.06;;;-142.53;40.63
4133;BME280;2080;51.038;7.008;2023-04-25T09:48:24;75465.84;;;-142.53;40.10
4133;BME280;2080;51.038;7.008;2023-04-25T09:51:12;75562.94;;;-142.53;38.41
4133;BME280;2080;51.038;7.008;2023-04-25T09:53:44;75617.31;;;-142.53;39.58
4133;BME280;2080;51.038;7.008;2023-04-25T09:56:12;75590.13;;;-142.53;39.24
4133;BME280;2080;51.038;7.008;2023-04-25T09:58:41;75527.97;;;-142.53;39.68
4133;BME280;2080;51.038;7.008;2023-04-25T10:01:09;75539.63;;;-142.53;39.03
4133;BME280;2080;51.038;7.008;2023-04-25T10:03:39;75493.03;;;-142.53;39.27
4133;BME280;2080;51.038;7.008;2023-04-25T10:06:12;75487.19;;;-142.53;37.27
4133;BME280;2080;51.038;7.008;2023-04-25T10:08:38;75568.75;;;-142.53;37.49
4133;BME280;2080;51.038;7.008;2023-04-25T10:11:05;75514.38;;;-142.53;37.51
4133;BME280;2080;51.038;7.008;2023-04-25T10:13:31;75531.88;;;-142.53;37.29
4133;BME280;2080;51.038;7.008;2023-04-25T10:16:01;75559.06;;;-142.53;37.78
4133;BME280;2080;51.038;7.008;2023-04-25T10:18:27;75590.13;;;-142.53;37.46
4133;BME280;2080;51.038;7.008;2023-04-25T10:21:00;75578.47;;;-142.53;38.18
4133;BME280;2080;51.038;7.008;2023-04-25T10:23:27;75479.44;;;-142.53;39.30
4133;BME280;2080;51.038;7.008;2023-04-25T10:25:54;75430.88;;;-142.53;37.62
4133;BME280;2080;51.038;7.008;2023-04-25T10:28:20;75423.13;;;-142.53;38.69
4133;BME280;2080;51.038;7.008;2023-04-25T10:31:06;75493.03;;;-142.53;38.70
4133;BME280;2080;51.038;7.008;2023-04-25T10:33:37;75601.78;;;-142.53;37.85
4133;BME280;2080;51.038;7.008;2023-04-25T10:36:20;75702.75;;;-142.53;38.78
4133;BME280;2080;51.038;7.008;2023-04-25T10:38:47;75729.94;;;-142.53;39.87
4133;BME280;2080;51.038;7.008;2023-04-25T10:41:14;75811.50;;;-142.53;40.48
4133;BME280;2080;51.038;7.008;2023-04-25T10:43:40;75815.38;;;-142.53;40.03
4133;BME280;2080;51.038;7.008;2023-04-25T10:46:28;75733.81;;;-142.53;39.79
4133;BME280;2080;51.038;7.008;2023-04-25T10:51:28;75663.91;;;-142.53;38.16
4133;BME280;2080;51.038;7.008;2023-04-25T10:54:04;75642.56;;;-142.53;38.11
4133;BME280;2080;51.038;7.008;2023-04-25T10:56:37;75625.06;;;-142.53;37.75
4133;BME280;2080;51.038;7.008;2023-04-25T10:59:18;75586.25;;;-142.53;36.84
4133;BME280;2080;51.038;7.008;2023-04-25T11:01:56;75549.34;;;-142.53;36.02
4133;BME280;2080;51.038;7.008;2023-04-25T11:04:28;75531.88;;;-142.53;36.39
4133;BME280;2080;51.038;7.008;2023-04-25T11:09:41;75473.59;;;-142.53;37.34
4133;BME280;2080;51.038;7.008;2023-04-25T11:12:10;75446.44;;;-142.53;36.69
4133;BME280;2080;51.038;7.008;2023-04-25T11:14:38;75539.63;;;-142.53;35.13
4133;BME280;2080;51.038;7.008;2023-04-25T11:17:03;75551.28;;;-142.53;36.25
4133;BME280;2080;51.038;7.008;2023-04-25T11:19:29;75473.59;;;-142.53;35.75
4133;BME280;2080;51.038;7.008;2023-04-25T11:21:58;75516.34;;;-142.53;35.87
4133;BME280;2080;51.038;7.008;2023-04-25T11:24:27;75434.78;;;-142.53;36.02
4133;BME280;2080;51.038;7.008;2023-04-25T11:26:53;75366.81;;;-142.53;35.65
4133;BME280;2080;51.038;7.008;2023-04-25T11:29:28;75376.53;;;-142.53;34.38
4133;BME280;2080;51.038;7.008;2023-04-25T11:31:54;75326.03;;;-142.53;33.13
4133;BME280;2080;51.038;7.008;2023-04-25T11:34:26;75407.59;;;-142.53;32.13
4133;BME280;2080;51.038;7.008;2023-04-25T11:36:52;75415.34;;;-142.53;33.03
4133;BME280;2080;51.038;7.008;2023-04-25T11:39:18;75582.34;;;-142.53;33.81
4133;BME280;2080;51.038;7.008;2023-04-25T11:41:44;75562.94;;;-142.53;35.97
4133;BME280;2080;51.038;7.008;2023-04-25T11:44:17;75510.50;;;-142.53;34.45
4133;BME280;2080;51.038;7.008;2023-04-25T11:46:44;75636.72;;;-142.53;34.77
4133;BME280;2080;51.038;7.008;2023-04-25T11:49:12;75576.53;;;-142.53;34.53
4133;BME280;2080;51.038;7.008;2023-04-25T11:51:49;75578.47;;;-142.53;33.57
4133;BME280;2080;51.038;7.008;2023-04-25T11:54:17;75578.47;;;-142.53;33.57
4133;BME280;2080;51.038;7.008;2023-04-25T11:56:45;75555.16;;;-142.53;33.25
4133;BME280;2080;51.038;7.008;2023-04-25T11:59:11;75570.69;;;-142.53;33.82
4133;BME280;2080;51.038;7.008;2023-04-25T12:01:38;75520.22;;;-142.53;33.63
4133;BME280;2080;51.038;7.008;2023-04-25T12:06:43;75428.94;;;-142.53;33.40
4133;BME280;2080;51.038;7.008;2023-04-25T12:09:12;75512.44;;;-142.53;33.46
4133;BME280;2080;51.038;7.008;2023-04-25T12:11:42;75498.84;;;-142.53;34.18
4133;BME280;2080;51.038;7.008;2023-04-25T12:14:19;75403.72;;;-142.53;33.93
4133;BME280;2080;51.038;7.008;2023-04-25T12:16:48;75362.94;;;-142.53;34.24
4133;BME280;2080;51.038;7.008;2023-04-25T12:19:19;75322.16;;;-142.53;32.93
4133;BME280;2080;51.038;7.008;2023-04-25T12:21:48;75415.34;;;-142.53;31.72
4133;BME280;2080;51.038;7.008;2023-04-25T12:24:21;75491.09;;;-142.53;32.30
4133;BME280;2080;51.038;7.008;2023-04-25T12:27:04;75531.88;;;-142.53;32.49
4133;BME280;2080;51.038;7.008;2023-04-25T12:29:33;75562.94;;;-142.53;32.59
4133;BME280;2080;51.038;7.008;2023-04-25T12:31:59;75539.63;;;-142.53;32.50
4133;BME280;2080;51.038;7.008;2023-04-25T12:34:27;75551.28;;;-142.53;32.48
4133;BME280;2080;51.038;7.008;2023-04-25T12:36:56;75522.16;;;-142.53;32.38
4133;BME280;2080;51.038;7.008;2023-04-25T12:39:26;75625.06;;;-142.53;33.46
4133;BME280;2080;51.038;7.008;2023-04-25T12:41:54;75592.06;;;-142.53;34.22
4133;BME280;2080;51.038;7.008;2023-04-25T12:44:21;75531.88;;;-142.53;33.98
4133;BME280;2080;51.038;7.008;2023-04-25T12:46:47;75551.28;;;-142.53;34.51
4133;BME280;2080;51.038;7.008;2023-04-25T12:49:13;75559.06;;;-142.53;34.97
4133;BME280;2080;51.038;7.008;2023-04-25T12:51:39;75630.91;;;-142.53;35.41
4133;BME280;2080;51.038;7.008;2023-04-25T12:54:05;75601.78;;;-142.53;35.65
4133;BME280;2080;51.038;7.008;2023-04-25T12:56:32;75665.84;;;-142.53;35.38
4133;BME280;2080;51.038;7.008;2023-04-25T12:59:01;75574.59;;;-142.53;35.85
4133;BME280;2080;51.038;7.008;2023-04-25T13:01:28;75590.13;;;-142.53;34.91
4133;BME280;2080;51.038;7.008;2023-04-25T13:03:56;75555.16;;;-142.53;34.31
4133;BME280;2080;51.038;7.008;2023-04-25T13:06:22;75485.25;;;-142.53;34.33
4133;BME280;2080;51.038;7.008;2023-04-25T13:08:50;75535.75;;;-142.53;34.42